Time;durP1;ratioP1;P1;durP2;ratioP2;P2;SDS_P1;SDS_P2;PMS_P1;PMS_P2;Temp;Humidity;BMP_temperature;BMP_pressure;BME280_temperature;BME280_humidity;BME280_pressure;Samples;Min_cycle;Max_cycle;Signal;HPM_P1;HPM_P2
2022/09/29 00:00:40;;;;;;;0.00;0.00;;;;;;;12.86;60.39;100004.09;7362257;19;20002;-58
2022/09/29 00:03:06;;;;;;;0.00;0.00;;;;;;;12.83;60.46;100001.63;7360386;19;20507;-56
2022/09/29 00:05:31;;;;;;;0.00;0.00;;;;;;;12.81;60.35;99998.19;7362405;19;19999;-58
2022/09/29 00:07:58;;;;;;;0.00;0.00;;;;;;;12.77;60.45;99999.25;7361111;19;20027;-57
2022/09/29 00:10:23;;;;;;;0.00;0.00;;;;;;;12.75;60.26;100006.31;7360265;19;20017;-58
2022/09/29 00:12:49;;;;;;;0.00;0.00;;;;;;;12.62;60.56;99985.03;7362431;19;20002;-58
2022/09/29 00:15:15;;;;;;;0.00;0.00;;;;;;;12.67;60.67;99994.41;7361805;19;20003;-59
2022/09/29 00:17:40;;;;;;;0.03;0.03;;;;;;;12.69;60.47;99999.59;7361947;19;20035;-58
2022/09/29 00:20:06;;;;;;;0.00;0.00;;;;;;;12.66;60.96;100003.16;7361313;19;19998;-59
2022/09/29 00:22:32;;;;;;;0.00;0.00;;;;;;;12.64;61.31;100005.03;7361688;19;20014;-58
2022/09/29 00:24:57;;;;;;;0.00;0.00;;;;;;;12.62;61.18;100004.25;7359416;19;20613;-58
2022/09/29 00:27:23;;;;;;;0.00;0.00;;;;;;;12.60;60.82;99997.34;7361281;19;20031;-58
2022/09/29 00:29:48;;;;;;;0.00;0.00;;;;;;;12.58;61.12;100005.28;7361626;19;20495;-58
2022/09/29 00:32:14;;;;;;;0.00;0.00;;;;;;;12.56;60.83;99996.63;7362016;19;20466;-58
2022/09/29 00:34:39;;;;;;;0.00;0.00;;;;;;;12.44;61.14;99986.66;7360580;19;20047;-59
2022/09/29 00:37:05;;;;;;;0.00;0.00;;;;;;;12.44;61.14;99986.66;7359838;19;20012;-58
2022/09/29 00:39:30;;;;;;;0.00;0.00;;;;;;;12.49;61.43;99983.84;7359883;19;20002;-58
2022/09/29 00:41:56;;;;;;;0.00;0.00;;;;;;;12.33;61.17;99962.72;7361252;19;20861;-58
2022/09/29 00:44:22;;;;;;;0.00;0.00;;;;;;;12.34;61.01;99975.72;7359684;19;20952;-58
2022/09/29 00:47:04;;;;;;;0.00;0.00;;;;;;;12.32;59.90;99971.47;7361693;19;20014;-57
2022/09/29 00:49:46;;;;;;;0.00;0.00;;;;;;;12.38;60.13;99986.94;7361091;19;20038;-58
2022/09/29 00:52:18;;;;;;;0.00;0.00;;;;;;;12.34;61.11;99986.19;7358716;19;20463;-58
2022/09/29 00:54:49;;;;;;;0.00;0.00;;;;;;;12.30;61.24;99995.09;7360302;19;20006;-57
2022/09/29 00:57:20;;;;;;;0.00;0.00;;;;;;;12.29;61.71;99988.16;7359775;19;20025;-58
2022/09/29 01:00:21;;;;;;;0.00;0.00;;;;;;;12.28;59.41;99985.59;7360576;19;20584;-57
2022/09/29 01:02:54;;;;;;;0.00;0.00;;;;;;;12.23;60.95;99995.41;7260279;19;2004249;-58
2022/09/29 01:05:31;;;;;;;0.00;0.00;;;;;;;12.22;61.31;99997.19;7365096;19;20073;-58
2022/09/29 01:08:00;;;;;;;0.00;0.00;;;;;;;12.17;61.85;99994.75;7366727;19;20510;-57
2022/09/29 01:10:26;;;;;;;0.00;0.00;;;;;;;12.14;61.99;99989.63;7367831;19;20038;-58
2022/09/29 01:12:52;;;;;;;0.00;0.00;;;;;;;12.12;62.17;99996.69;7370678;19;20041;-59
2022/09/29 01:15:19;;;;;;;0.00;0.00;;;;;;;12.07;62.21;99988.19;7369755;19;20010;-58
2022/09/29 01:17:46;;;;;;;0.00;0.00;;;;;;;12.07;62.02;99993.41;7371484;19;21103;-58
2022/09/29 01:20:16;;;;;;;0.00;0.00;;;;;;;12.05;62.15;99987.38;7369223;19;20017;-57
2022/09/29 01:23:10;;;;;;;0.00;0.00;;;;;;;12.04;62.45;99985.69;7368963;19;20002;-57
2022/09/29 01:25:54;;;;;;;0.00;0.00;;;;;;;12.04;61.54;99988.28;7267118;19;2004370;-57
2022/09/29 01:28:40;;;;;;;0.08;0.08;;;;;;;12.03;61.39;99996.22;7368398;19;20006;-57
2022/09/29 01:31:37;;;;;;;0.00;0.00;;;;;;;12.01;60.73;99988.41;7370996;19;20015;-58
2022/09/29 01:34:03;;;;;;;0.00;0.00;;;;;;;12.01;62.79;99998.88;7265957;19;2004208;-59
2022/09/29 01:36:45;;;;;;;0.00;0.00;;;;;;;12.02;61.83;99992.75;7368860;19;20809;-58
2022/09/29 01:39:40;;;;;;;0.00;0.00;;;;;;;12.03;61.51;99990.97;7351186;19;20781;-58
2022/09/29 01:42:25;;;;;;;0.00;0.00;;;;;;;12.03;61.43;99997.06;7267646;19;2004272;-58
2022/09/29 01:45:00;;;;;;;0.00;0.00;;;;;;;12.03;62.25;99998.84;7368321;19;20106;-58
2022/09/29 01:47:34;;;;;;;0.00;0.00;;;;;;;12.03;62.61;99997.06;7369309;19;20009;-59
2022/09/29 01:50:07;;;;;;;0.10;0.10;;;;;;;12.05;62.75;99997.00;7366413;19;19999;-57
2022/09/29 01:52:40;;;;;;;0.00;0.00;;;;;;;12.05;62.54;99997.00;7368748;19;20006;-58
2022/09/29 01:55:16;;;;;;;0.10;0.10;;;;;;;11.96;62.33;99974.66;7369075;19;20481;-58
2022/09/29 01:57:49;;;;;;;0.10;0.10;;;;;;;11.97;62.82;99967.69;7361050;19;20027;-58
2022/09/29 02:00:17;;;;;;;0.00;0.00;;;;;;;12.09;62.90;99988.97;7365510;19;20023;-57
2022/09/29 02:03:10;;;;;;;0.00;0.00;;;;;;;12.13;61.51;99993.16;7348158;19;20354;-58
2022/09/29 02:05:43;;;;;;;0.00;0.00;;;;;;;12.12;62.76;99991.47;7263873;19;2004538;-57
2022/09/29 02:08:16;;;;;;;0.00;0.00;;;;;;;12.15;62.77;99996.56;7366820;19;20036;-57
2022/09/29 02:10:50;;;;;;;0.00;0.00;;;;;;;12.15;62.26;99988.72;7364627;19;20006;-57
2022/09/29 02:13:18;;;;;;;0.00;0.00;;;;;;;12.17;63.33;99989.50;7366100;19;20003;-58
2022/09/29 02:15:47;;;;;;;0.00;0.00;;;;;;;12.21;63.13;99992.84;7366594;19;20796;-58
2022/09/29 02:18:20;;;;;;;0.00;0.00;;;;;;;12.17;62.90;99976.44;7366263;19;20022;-58
2022/09/29 02:20:47;;;;;;;0.00;0.00;;;;;;;12.26;63.07;99982.19;7363795;19;20018;-59
2022/09/29 02:23:12;;;;;;;0.00;0.00;;;;;;;12.26;63.21;99979.56;7367580;19;20025;-58
2022/09/29 02:25:39;;;;;;;0.00;0.00;;;;;;;12.22;63.58;99970.16;7365776;19;20023;-58
2022/09/29 02:28:06;;;;;;;0.00;0.00;;;;;;;12.35;63.22;99987.03;7366806;19;20676;-58
2022/09/29 02:30:32;;;;;;;0.00;0.00;;;;;;;12.33;63.07;99973.19;7365725;19;20049;-56
2022/09/29 02:32:58;;;;;;;0.00;0.00;;;;;;;12.39;63.25;99984.25;7364868;19;20474;-57
2022/09/29 02:35:28;;;;;;;0.00;0.00;;;;;;;12.43;63.17;99984.97;7364981;19;20126;-58
2022/09/29 02:37:59;;;;;;;0.00;0.00;;;;;;;12.46;63.47;99990.06;7365910;19;19994;-56
2022/09/29 02:40:37;;;;;;;0.00;0.00;;;;;;;12.50;63.00;99985.56;7366140;19;20017;-58
2022/09/29 02:43:43;;;;;;;0.00;0.00;;;;;;;12.54;61.74;99997.63;7366310;19;20447;-58
2022/09/29 02:46:21;;;;;;;0.00;0.00;;;;;;;12.53;62.49;99991.53;7263961;19;2004469;-56
2022/09/29 02:48:52;;;;;;;0.00;0.00;;;;;;;12.53;62.57;99985.44;7365189;19;20014;-58
2022/09/29 02:51:29;;;;;;;0.00;0.00;;;;;;;12.52;62.98;99984.59;7366163;19;20822;-58
2022/09/29 02:54:12;;;;;;;0.00;0.00;;;;;;;12.52;61.90;99989.84;7365998;19;19999;-58
2022/09/29 02:56:53;;;;;;;0.00;0.00;;;;;;;12.52;62.55;99996.81;7363336;19;20126;-57
2022/09/29 02:59:49;;;;;;;0.00;0.00;;;;;;;12.43;61.58;99982.34;7366760;19;20340;-59
2022/09/29 03:02:15;;;;;;;0.00;0.00;;;;;;;12.47;63.06;99999.66;7260977;19;2004675;-58
2022/09/29 03:04:40;;;;;;;0.00;0.00;;;;;;;12.45;63.24;100002.31;7357327;19;20006;-58
2022/09/29 03:07:06;;;;;;;0.00;0.00;;;;;;;12.45;63.29;99993.59;7363844;19;19995;-58
2022/09/29 03:09:32;;;;;;;0.00;0.00;;;;;;;12.44;63.05;99991.91;7365336;19;20020;-57
2022/09/29 03:11:57;;;;;;;0.00;0.00;;;;;;;12.40;63.29;99985.09;7364534;19;20011;-58
2022/09/29 03:14:23;;;;;;;0.00;0.00;;;;;;;12.44;63.12;99997.16;7360925;19;20028;-58
2022/09/29 03:16:48;;;;;;;0.00;0.00;;;;;;;12.38;62.94;99992.16;7365930;19;20006;-58
2022/09/29 03:19:14;;;;;;;0.00;0.00;;;;;;;12.41;63.31;100012.97;7359292;19;20722;-58
2022/09/29 03:21:39;;;;;;;0.00;0.00;;;;;;;12.41;63.21;100018.22;7364641;19;20102;-58
2022/09/29 03:24:05;;;;;;;0.00;0.00;;;;;;;12.40;63.21;100016.50;7364097;19;20006;-58
2022/09/29 03:26:30;;;;;;;0.00;0.00;;;;;;;12.38;63.43;100021.81;7365661;19;20028;-59
2022/09/29 03:28:56;;;;;;;0.00;0.00;;;;;;;12.35;63.50;100018.47;7365692;19;20007;-58
2022/09/29 03:31:21;;;;;;;0.00;0.00;;;;;;;12.37;63.44;100021.88;7365223;19;20009;-55
2022/09/29 03:33:47;;;;;;;0.00;0.00;;;;;;;12.36;63.31;100022.78;7365678;19;20607;-58
2022/09/29 03:36:12;;;;;;;0.03;0.03;;;;;;;12.35;63.18;100018.47;7366307;19;20002;-59
2022/09/29 03:38:38;;;;;;;0.00;0.00;;;;;;;12.30;63.23;100020.41;7365301;19;20289;-58
2022/09/29 03:41:04;;;;;;;0.00;0.00;;;;;;;12.31;63.49;100029.97;7366916;19;20006;-57
2022/09/29 03:43:30;;;;;;;0.00;0.00;;;;;;;12.28;63.66;100028.34;7362276;19;20005;-57
2022/09/29 03:45:56;;;;;;;0.00;0.00;;;;;;;12.28;63.65;100032.72;7366303;19;20007;-58
2022/09/29 03:48:22;;;;;;;0.10;0.10;;;;;;;12.26;63.72;100034.53;7363603;19;20015;-59
2022/09/29 03:50:49;;;;;;;0.00;0.00;;;;;;;12.24;63.78;100036.38;7366426;19;20014;-58
2022/09/29 03:53:15;;;;;;;0.00;0.00;;;;;;;12.12;63.66;100017.63;7364734;19;20006;-57
2022/09/29 03:55:45;;;;;;;0.00;0.00;;;;;;;12.22;63.24;100033.84;7364839;19;22313;-58
2022/09/29 03:58:10;;;;;;;0.00;0.00;;;;;;;12.20;63.58;100031.25;7364604;19;20041;-55
2022/09/29 04:00:36;;;;;;;0.00;0.00;;;;;;;12.21;63.59;100042.56;7364631;19;20061;-58
2022/09/29 04:03:01;;;;;;;0.00;0.00;;;;;;;12.22;64.07;100038.22;7363882;19;20468;-57
2022/09/29 04:05:28;;;;;;;0.00;0.00;;;;;;;12.18;63.67;100029.63;7364372;19;20013;-57
2022/09/29 04:07:54;;;;;;;0.08;0.08;;;;;;;12.20;64.01;100041.72;7365679;19;20128;-58
2022/09/29 04:10:19;;;;;;;0.10;0.10;;;;;;;12.22;63.87;100039.06;7365675;19;20022;-57
2022/09/29 04:12:44;;;;;;;0.00;0.00;;;;;;;12.23;63.95;100039.91;7361326;19;20669;-58
2022/09/29 04:15:10;;;;;;;0.00;0.00;;;;;;;12.22;64.06;100038.22;7365017;19;20006;-58
2022/09/29 04:17:35;;;;;;;0.00;0.00;;;;;;;12.23;63.96;100042.53;7365091;19;20010;-58
2022/09/29 04:20:01;;;;;;;0.00;0.00;;;;;;;12.22;64.00;100049.53;7364750;19;20014;-58
2022/09/29 04:22:26;;;;;;;0.00;0.00;;;;;;;12.20;63.75;100052.19;7363785;19;20006;-58
2022/09/29 04:24:51;;;;;;;0.00;0.00;;;;;;;12.18;63.68;100054.03;7365657;19;20007;-58
2022/09/29 04:27:17;;;;;;;0.00;0.00;;;;;;;12.17;63.72;100052.34;7363131;19;20006;-58
2022/09/29 04:29:43;;;;;;;0.00;0.00;;;;;;;12.14;63.70;100057.69;7364274;19;20003;-58
2022/09/29 04:32:09;;;;;;;0.00;0.00;;;;;;;12.02;63.92;100032.00;7364012;19;20774;-58
2022/09/29 04:34:34;;;;;;;0.00;0.00;;;;;;;12.10;63.64;100050.84;7364320;19;21136;-57
2022/09/29 04:37:00;;;;;;;0.00;0.00;;;;;;;12.07;64.03;100056.22;7368256;19;20034;-57
2022/09/29 04:39:26;;;;;;;0.00;0.00;;;;;;;12.04;63.98;100053.72;7371320;19;19998;-58
2022/09/29 04:41:51;;;;;;;0.00;0.00;;;;;;;12.03;64.11;100054.63;7369546;19;20013;-58
2022/09/29 04:44:19;;;;;;;0.10;0.10;;;;;;;11.97;64.12;100057.50;7371155;19;20027;-58
2022/09/29 04:46:44;;;;;;;;;;;;;;;12.02;61.93;100065.16;7371054;19;20006;-57
2022/09/29 04:49:09;;;;;;;0.00;0.00;;;;;;;11.97;63.90;100059.25;7371679;19;21405;-57
2022/09/29 04:51:35;;;;;;;0.00;0.00;;;;;;;11.96;63.37;100066.22;7367237;19;20941;-56
2022/09/29 04:54:00;;;;;;;0.00;0.00;;;;;;;11.93;64.13;100071.59;7371063;19;20006;-56
2022/09/29 04:56:30;;;;;;;0.00;0.00;;;;;;;11.91;63.97;100070.78;7367965;19;20006;-58
2022/09/29 04:58:56;;;;;;;0.00;0.00;;;;;;;11.88;64.08;100076.16;7368835;19;20549;-58
2022/09/29 05:01:21;;;;;;;0.00;0.00;;;;;;;11.91;64.13;100084.75;7369569;19;20006;-57
2022/09/29 05:03:46;;;;;;;0.00;0.00;;;;;;;11.93;64.25;100089.91;7369860;19;20375;-58
2022/09/29 05:06:12;;;;;;;0.00;0.00;;;;;;;11.93;64.29;100096.00;7369534;19;20018;-58
2022/09/29 05:08:37;;;;;;;0.00;0.00;;;;;;;11.96;64.13;100102.88;7369493;19;20026;-56
2022/09/29 05:11:07;;;;;;;0.00;0.00;;;;;;;12.00;64.37;100108.84;7368247;19;20002;-58
2022/09/29 05:13:33;;;;;;;0.00;0.00;;;;;;;11.99;64.17;100115.84;7368250;19;20009;-58
2022/09/29 05:15:58;;;;;;;0.00;0.00;;;;;;;12.01;64.34;100119.25;7369552;19;20014;-58
2022/09/29 05:18:24;;;;;;;0.00;0.00;;;;;;;12.03;64.64;100117.44;7368915;19;20014;-58
2022/09/29 05:20:50;;;;;;;0.00;0.00;;;;;;;12.07;64.55;100113.81;7369230;19;20006;-57
2022/09/29 05:23:16;;;;;;;0.00;0.00;;;;;;;11.98;64.78;100106.28;7367811;19;20010;-58
2022/09/29 05:25:42;;;;;;;0.00;0.00;;;;;;;12.08;64.56;100118.13;7370711;19;20677;-58
2022/09/29 05:28:09;;;;;;;0.00;0.00;;;;;;;12.11;64.61;100125.84;7369361;19;20006;-58
2022/09/29 05:30:35;;;;;;;0.00;0.00;;;;;;;12.06;64.21;100117.31;7368699;19;20055;-57
2022/09/29 05:33:01;;;;;;;0.00;0.00;;;;;;;12.17;64.42;100133.47;7368116;19;20003;-57
2022/09/29 05:35:26;;;;;;;0.00;0.00;;;;;;;12.19;64.24;100126.41;7368610;19;20059;-57
2022/09/29 05:37:51;;;;;;;0.00;0.00;;;;;;;12.23;64.38;100123.69;7370886;19;20516;-57
2022/09/29 05:40:18;;;;;;;0.00;0.00;;;;;;;12.26;64.55;100128.78;7369427;19;20022;-58
2022/09/29 05:42:44;;;;;;;0.00;0.00;;;;;;;12.28;64.55;100127.81;7368596;19;20016;-56
2022/09/29 05:45:10;;;;;;;0.00;0.00;;;;;;;12.31;64.29;100126.84;7369046;19;20010;-57
2022/09/29 05:47:39;;;;;;;0.00;0.00;;;;;;;12.33;64.67;100131.13;7366825;19;20439;-58
2022/09/29 05:50:05;;;;;;;0.00;0.00;;;;;;;12.36;64.83;100119.66;7367881;19;20002;-58
2022/09/29 05:52:30;;;;;;;0.00;0.00;;;;;;;12.39;64.52;100124.78;7367383;19;20030;-58
2022/09/29 05:54:56;;;;;;;0.00;0.00;;;;;;;12.40;64.35;100127.34;7367185;19;20023;-58
2022/09/29 05:57:21;;;;;;;0.00;0.00;;;;;;;12.45;64.24;100135.00;7368604;19;20007;-58
2022/09/29 05:59:47;;;;;;;0.00;0.00;;;;;;;12.44;64.56;100122.84;7358872;19;20028;-58
2022/09/29 06:02:12;;;;;;;0.00;0.00;;;;;;;12.40;64.59;100116.00;7365402;19;20486;-58
2022/09/29 06:04:37;;;;;;;0.00;0.00;;;;;;;12.46;64.74;100126.22;7368079;19;20021;-58
2022/09/29 06:07:03;;;;;;;0.00;0.00;;;;;;;12.46;64.30;100131.47;7365718;19;20009;-57
2022/09/29 06:09:29;;;;;;;0.00;0.00;;;;;;;12.45;64.47;100125.38;7367476;19;21134;-55
2022/09/29 06:11:54;;;;;;;0.00;0.00;;;;;;;12.47;64.69;100133.19;7366873;19;20034;-58
2022/09/29 06:14:19;;;;;;;0.00;0.00;;;;;;;12.45;64.44;100128.00;7367622;19;20037;-57
2022/09/29 06:16:45;;;;;;;0.00;0.00;;;;;;;12.46;64.27;100132.31;7364698;19;20014;-58
2022/09/29 06:19:10;;;;;;;0.00;0.00;;;;;;;12.46;64.42;100134.09;7368799;19;21259;-58
2022/09/29 06:21:36;;;;;;;0.00;0.00;;;;;;;12.47;64.43;100143.69;7363725;19;20045;-57
2022/09/29 06:24:02;;;;;;;0.00;0.00;;;;;;;12.48;64.50;100145.38;7367900;19;20006;-58
2022/09/29 06:26:28;;;;;;;0.00;0.00;;;;;;;12.48;64.68;100145.38;7364951;19;20002;-56
2022/09/29 06:28:55;;;;;;;0.00;0.00;;;;;;;12.50;64.57;100146.16;7368026;19;21092;-58
2022/09/29 06:31:24;;;;;;;0.00;0.00;;;;;;;12.51;64.40;100150.47;7360666;19;20015;-58
2022/09/29 06:33:49;;;;;;;0.00;0.00;;;;;;;12.47;64.81;100151.53;7366904;19;20785;-58
2022/09/29 06:39:06;;;;;;;0.00;0.00;;;;;;;12.52;64.72;100160.06;7258613;19;2004622;-58
2022/09/29 06:41:31;;;;;;;0.00;0.00;;;;;;;12.51;64.90;100168.81;7360580;19;20014;-57
2022/09/29 06:43:56;;;;;;;0.00;0.00;;;;;;;12.53;64.55;100171.38;7367190;19;20035;-59
2022/09/29 06:46:22;;;;;;;0.00;0.00;;;;;;;12.54;64.84;100170.47;7363752;19;20011;-58
2022/09/29 06:48:48;;;;;;;0.00;0.00;;;;;;;12.54;64.93;100170.47;7366113;19;20002;-58
2022/09/29 06:51:13;;;;;;;0.05;0.05;;;;;;;12.51;64.81;100166.19;7357089;19;20024;-57
2022/09/29 06:53:39;;;;;;;0.00;0.00;;;;;;;12.55;64.59;100178.25;7360773;19;20078;-57
2022/09/29 06:56:07;;;;;;;0.00;0.00;;;;;;;12.60;65.09;100173.69;7360145;19;20006;-58
2022/09/29 06:58:34;;;;;;;0.00;0.00;;;;;;;12.62;64.82;100184.97;7361918;19;20013;-59
2022/09/29 07:01:00;;;;;;;0.05;0.05;;;;;;;12.64;64.72;100188.38;7353012;19;20014;-58
2022/09/29 07:03:27;;;;;;;0.00;0.00;;;;;;;12.66;64.81;100189.16;7360642;19;20784;-58
2022/09/29 07:05:52;;;;;;;0.00;0.00;;;;;;;12.69;64.77;100191.66;7362901;19;20090;-58
2022/09/29 07:08:18;;;;;;;0.10;0.10;;;;;;;12.70;64.89;100193.38;7362998;19;21075;-58
2022/09/29 07:10:45;;;;;;;0.00;0.00;;;;;;;12.66;64.76;100183.91;7362645;19;20015;-56
2022/09/29 07:13:11;;;;;;;0.00;0.00;;;;;;;12.80;65.07;100206.13;7363326;19;20009;-58
2022/09/29 07:15:36;;;;;;;0.00;0.00;;;;;;;12.82;65.08;100206.88;7362882;19;20014;-58
2022/09/29 07:18:03;;;;;;;0.00;0.00;;;;;;;12.73;64.92;100193.25;7363599;19;20019;-57
2022/09/29 07:20:33;;;;;;;0.00;0.00;;;;;;;12.89;64.88;100213.59;7364148;19;20501;-59
2022/09/29 07:22:59;;;;;;;0.00;0.00;;;;;;;12.91;64.75;100217.84;7363867;19;21015;-58
2022/09/29 07:25:24;;;;;;;0.00;0.00;;;;;;;12.94;64.75;100216.91;7363713;19;20061;-58
2022/09/29 07:27:50;;;;;;;0.00;0.00;;;;;;;12.96;64.67;100220.31;7354988;19;20006;-57
2022/09/29 07:30:17;;;;;;;0.00;0.00;;;;;;;12.94;65.01;100216.91;7354312;19;20009;-57
2022/09/29 07:32:42;;;;;;;0.00;0.00;;;;;;;13.00;65.13;100219.28;7351445;19;20006;-58
2022/09/29 07:35:08;;;;;;;0.00;0.00;;;;;;;13.02;65.01;100219.19;7364170;19;21714;-57
2022/09/29 07:37:34;;;;;;;0.00;0.00;;;;;;;13.05;64.83;100225.19;7363439;19;20021;-58
2022/09/29 07:40:00;;;;;;;0.00;0.00;;;;;;;13.07;65.04;100231.19;7362712;19;20015;-57
2022/09/29 07:42:27;;;;;;;0.00;0.00;;;;;;;13.04;64.75;100218.22;7362494;19;20073;-58
2022/09/29 07:44:52;;;;;;;0.00;0.00;;;;;;;13.09;64.63;100226.75;7362653;19;20006;-57
2022/09/29 07:47:18;;;;;;;0.00;0.00;;;;;;;13.11;64.73;100238.03;7359912;19;20656;-58
2022/09/29 07:49:44;;;;;;;0.00;0.00;;;;;;;13.13;64.79;100236.22;7363075;19;20014;-58
2022/09/29 07:52:11;;;;;;;0.10;0.10;;;;;;;13.15;64.92;100238.78;7360937;19;20010;-58
2022/09/29 07:54:36;;;;;;;0.00;0.00;;;;;;;13.16;64.53;100235.22;7364182;19;20873;-58
2022/09/29 07:57:02;;;;;;;0.00;0.00;;;;;;;13.18;64.88;100242.13;7362091;19;20019;-58
2022/09/29 07:59:29;;;;;;;0.00;0.00;;;;;;;13.13;64.69;100238.00;7362337;19;20006;-58
2022/09/29 08:01:55;;;;;;;0.00;0.00;;;;;;;13.22;64.93;100251.59;7362676;19;20474;-56
2022/09/29 08:04:20;;;;;;;0.00;0.00;;;;;;;13.24;64.59;100252.38;7362437;19;20013;-58
2022/09/29 08:06:46;;;;;;;0.00;0.00;;;;;;;13.27;64.75;100255.78;7363905;19;20011;-58
2022/09/29 08:09:12;;;;;;;0.05;0.05;;;;;;;13.28;64.61;100257.50;7362291;19;20352;-58
2022/09/29 08:11:40;;;;;;;0.00;0.00;;;;;;;13.30;64.69;100256.53;7362867;19;20010;-58
2022/09/29 08:14:05;;;;;;;;;;;;;;;13.39;63.08;100266.66;7362163;19;20011;-57
2022/09/29 08:16:31;;;;;;;0.00;0.00;;;;;;;13.39;64.94;100263.19;7362737;19;19922;-59
2022/09/29 08:18:58;;;;;;;0.00;0.00;;;;;;;13.44;64.90;100266.47;7363142;19;20033;-58
2022/09/29 08:21:23;;;;;;;0.00;0.00;;;;;;;13.47;64.76;100274.19;7361095;19;20022;-57
2022/09/29 08:23:49;;;;;;;0.00;0.00;;;;;;;13.49;64.98;100273.22;7362550;19;20328;-57
2022/09/29 08:26:17;;;;;;;0.03;0.03;;;;;;;13.48;64.84;100261.03;7361399;19;20033;-57
2022/09/29 08:28:43;;;;;;;0.00;0.00;;;;;;;13.52;64.37;100259.09;7363451;19;20006;-58
2022/09/29 08:31:12;;;;;;;0.00;0.00;;;;;;;13.61;64.61;100282.34;7361871;19;20018;-58
2022/09/29 08:33:38;;;;;;;0.00;0.00;;;;;;;13.64;64.85;100284.84;7361552;19;20014;-58
2022/09/29 08:36:13;;;;;;;0.03;0.03;;;;;;;13.57;64.53;100270.25;7361793;19;20002;-58
2022/09/29 08:38:43;;;;;;;0.00;0.00;;;;;;;13.70;64.79;100291.59;7361754;19;20003;-56
2022/09/29 08:41:18;;;;;;;0.10;0.10;;;;;;;13.81;64.61;100296.41;7362219;19;20014;-58
2022/09/29 08:43:45;;;;;;;0.00;0.00;;;;;;;13.86;65.21;100297.06;7362437;19;20011;-59
2022/09/29 08:46:27;;;;;;;0.00;0.00;;;;;;;14.19;65.45;100294.72;7360624;19;20027;-57
2022/09/29 08:48:54;;;;;;;0.00;0.00;;;;;;;14.37;65.13;100293.91;7362213;19;20026;-58
2022/09/29 08:51:30;;;;;;;0.10;0.10;;;;;;;14.82;65.08;100289.28;7360772;19;20117;-57
2022/09/29 08:54:01;;;;;;;0.00;0.00;;;;;;;15.16;64.87;100288.56;7361081;19;20003;-58
2022/09/29 08:56:27;;;;;;;0.00;0.00;;;;;;;15.52;64.49;100280.63;7358353;19;20007;-58
2022/09/29 08:58:52;;;;;;;0.00;0.00;;;;;;;15.90;64.05;100280.50;7361906;19;21492;-58
2022/09/29 09:01:26;;;;;;;0.08;0.08;;;;;;;16.39;64.22;100291.09;7360055;19;20549;-58
2022/09/29 09:04:20;;;;;;;0.05;0.05;;;;;;;16.69;63.17;100289.47;7360759;19;20065;-58
2022/09/29 09:06:54;;;;;;;0.10;0.10;;;;;;;17.18;62.75;100299.94;7257584;19;2004649;-57
2022/09/29 09:09:42;;;;;;;0.08;0.08;;;;;;;17.52;62.20;100303.28;7361429;19;20039;-58
2022/09/29 09:12:25;;;;;;;0.03;0.03;;;;;;;17.62;60.78;100307.94;7360616;19;20799;-58
2022/09/29 09:14:59;;;;;;;0.00;0.00;;;;;;;17.64;60.42;100299.97;7360025;19;20450;-56
2022/09/29 09:17:58;;;;;;;0.08;0.08;;;;;;;17.77;60.41;100303.59;7360838;19;20026;-57
2022/09/29 09:20:34;;;;;;;0.10;0.10;;;;;;;17.73;59.81;100306.50;7257101;19;2004462;-58
2022/09/29 09:23:08;;;;;;;0.00;0.00;;;;;;;17.61;59.51;100315.97;7365239;19;19998;-57
2022/09/29 09:25:55;;;;;;;0.05;0.05;;;;;;;17.66;60.11;100321.84;7367448;19;20792;-58
2022/09/29 09:28:26;;;;;;;0.00;0.00;;;;;;;17.58;60.06;100330.19;7366230;19;20675;-57
2022/09/29 09:31:09;;;;;;;0.10;0.10;;;;;;;17.58;59.67;100324.06;7365307;19;20010;-57
2022/09/29 09:34:11;;;;;;;0.10;0.10;;;;;;;17.63;60.22;100332.56;7366242;19;20010;-58
2022/09/29 09:36:44;;;;;;;0.00;0.00;;;;;;;17.61;59.50;100334.47;7265873;19;2004204;-58
2022/09/29 09:39:17;;;;;;;0.00;0.00;;;;;;;17.59;59.65;100325.78;7366697;19;20002;-57
2022/09/29 09:41:46;;;;;;;0.10;0.10;;;;;;;17.56;59.67;100331.22;7367625;19;20446;-57
2022/09/29 09:44:28;;;;;;;0.00;0.00;;;;;;;17.56;60.23;100341.78;7364531;19;20019;-58
2022/09/29 09:47:08;;;;;;;0.10;0.10;;;;;;;17.58;59.72;100346.03;7366544;19;20006;-58
2022/09/29 09:49:51;;;;;;;0.00;0.00;;;;;;;17.67;59.83;100349.94;7363842;19;20025;-58
2022/09/29 09:52:21;;;;;;;0.10;0.10;;;;;;;17.63;59.85;100340.50;7366665;19;20064;-58
2022/09/29 09:54:55;;;;;;;0.00;0.00;;;;;;;17.69;59.97;100358.63;7365112;19;20078;-58
2022/09/29 09:57:39;;;;;;;0.00;0.00;;;;;;;17.74;59.30;100361.03;7366313;19;20015;-58
2022/09/29 10:00:24;;;;;;;0.00;0.00;;;;;;;17.62;59.42;100344.06;7364174;19;20007;-58
2022/09/29 10:02:54;;;;;;;0.00;0.00;;;;;;;17.61;59.56;100355.56;7360726;19;20007;-57
2022/09/29 10:05:25;;;;;;;0.00;0.00;;;;;;;17.68;59.72;100359.56;7358682;19;20037;-57
2022/09/29 10:07:52;;;;;;;0.08;0.08;;;;;;;17.68;59.62;100362.19;7361267;19;20018;-58
2022/09/29 10:10:28;;;;;;;0.10;0.10;;;;;;;17.76;59.69;100359.16;7362007;19;20007;-58
2022/09/29 10:13:05;;;;;;;0.00;0.00;;;;;;;17.78;59.59;100363.41;7362911;19;20010;-56
2022/09/29 10:15:44;;;;;;;0.08;0.08;;;;;;;17.80;59.42;100371.25;7361969;19;20031;-57
2022/09/29 10:18:21;;;;;;;0.00;0.00;;;;;;;17.81;59.41;100372.94;7361906;19;20014;-58
2022/09/29 10:20:47;;;;;;;0.10;0.10;;;;;;;17.78;59.41;100373.97;7363200;19;20066;-57
2022/09/29 10:23:21;;;;;;;0.05;0.05;;;;;;;17.84;58.58;100384.19;7360816;19;21510;-56
2022/09/29 10:25:52;;;;;;;0.10;0.10;;;;;;;17.82;58.96;100378.13;7362987;19;20015;-59
2022/09/29 10:28:18;;;;;;;0.00;0.00;;;;;;;17.78;58.97;100378.41;7363484;19;20006;-57
2022/09/29 10:30:44;;;;;;;0.10;0.10;;;;;;;17.77;58.94;100377.56;7359839;19;20010;-58
2022/09/29 10:33:16;;;;;;;0.03;0.03;;;;;;;17.82;58.69;100375.50;7362307;19;20825;-58
2022/09/29 10:35:43;;;;;;;0.00;0.00;;;;;;;17.79;59.27;100377.44;7361841;19;20027;-58
2022/09/29 10:38:25;;;;;;;0.00;0.00;;;;;;;17.84;59.10;100389.47;7364036;19;21128;-57
2022/09/29 10:41:07;;;;;;;0.00;0.00;;;;;;;17.87;58.86;100388.44;7362658;19;20010;-56
2022/09/29 10:43:41;;;;;;;0.10;0.10;;;;;;;17.85;59.05;100383.25;7363255;19;20033;-57
2022/09/29 10:46:44;;;;;;;0.00;0.00;;;;;;;17.92;59.15;100381.09;7359917;19;20010;-58
2022/09/29 10:49:19;;;;;;;0.00;0.00;;;;;;;17.92;58.93;100380.25;7261387;19;2004839;-57
2022/09/29 10:51:54;;;;;;;0.00;0.00;;;;;;;17.96;59.31;100379.13;7358512;19;20742;-57
2022/09/29 10:54:24;;;;;;;0.00;0.00;;;;;;;18.01;59.80;100379.72;7361578;19;20019;-57
2022/09/29 10:56:50;;;;;;;0.00;0.00;;;;;;;18.12;59.23;100378.13;7361357;19;20013;-57
2022/09/29 10:59:17;;;;;;;0.00;0.00;;;;;;;18.29;59.58;100381.56;7363860;19;20093;-56
2022/09/29 11:01:50;;;;;;;0.00;0.00;;;;;;;18.55;59.51;100379.97;7361697;19;20050;-56
2022/09/29 11:04:25;;;;;;;0.10;0.10;;;;;;;18.81;59.44;100366.06;7362918;19;20010;-58
2022/09/29 11:06:51;;;;;;;0.10;0.10;;;;;;;19.07;58.99;100368.88;7361854;19;20026;-57
2022/09/29 11:09:16;;;;;;;0.10;0.10;;;;;;;19.38;58.28;100365.09;7364011;19;20022;-58
2022/09/29 11:11:48;;;;;;;0.00;0.00;;;;;;;19.78;58.38;100366.03;7363586;19;20866;-58
2022/09/29 11:14:40;;;;;;;0.00;0.00;;;;;;;20.19;59.02;100363.25;7361970;19;20006;-57
2022/09/29 11:17:38;;;;;;;0.10;0.10;;;;;;;20.65;59.16;100343.34;7260206;19;2004392;-57
2022/09/29 11:20:09;;;;;;;0.10;0.10;;;;;;;21.21;56.27;100362.31;7260228;19;2004405;-58
2022/09/29 11:22:56;;;;;;;0.00;0.00;;;;;;;21.84;57.35;100369.19;7359867;19;20350;-58
2022/09/29 11:25:37;;;;;;;0.10;0.10;;;;;;;22.37;56.08;100347.50;7361620;19;20093;-56
2022/09/29 11:28:15;;;;;;;0.00;0.00;;;;;;;22.96;54.20;100360.59;7355678;19;20458;-56
2022/09/29 11:31:08;;;;;;;0.10;0.10;;;;;;;23.56;55.13;100354.75;7360103;19;20004;-57
2022/09/29 11:33:55;;;;;;;0.10;0.10;;;;;;;24.09;53.26;100361.97;7259901;19;2004486;-58
2022/09/29 11:36:43;;;;;;;0.10;0.10;;;;;;;24.61;53.41;100367.34;7362236;19;20599;-57
2022/09/29 11:39:47;;;;;;;0.10;0.10;;;;;;;25.14;51.23;100356.47;7358725;19;20035;-57
2022/09/29 11:42:30;;;;;;;0.10;0.10;;;;;;;25.63;50.25;100361.75;7256350;19;2004290;-58
2022/09/29 11:45:02;;;;;;;0.10;0.10;;;;;;;25.81;46.86;100359.25;7360683;19;20006;-57